createdAt,value
2023-02-27T00:00:15.520Z,21.64
2023-02-27T00:03:20.749Z,21.63
2023-02-27T00:06:23.583Z,21.61
2023-02-27T00:09:26.553Z,21.66
2023-02-27T00:12:30.804Z,21.59
2023-02-27T00:15:35.174Z,21.54
2023-02-27T00:18:37.991Z,21.56
2023-02-27T00:21:40.951Z,21.51
2023-02-27T00:24:43.760Z,21.47
2023-02-27T00:27:46.577Z,21.45
2023-02-27T00:30:50.729Z,21.40
2023-02-27T00:33:53.567Z,21.37
2023-02-27T00:36:56.326Z,21.31
2023-02-27T00:39:59.137Z,21.30
2023-02-27T00:43:01.922Z,21.28
2023-02-27T00:46:06.293Z,21.28
2023-02-27T00:49:09.133Z,21.21
2023-02-27T00:52:11.978Z,21.19
2023-02-27T00:55:14.801Z,21.17
2023-02-27T00:58:17.929Z,21.13
2023-02-27T01:01:22.077Z,21.10
2023-02-27T01:04:24.907Z,21.08
2023-02-27T01:07:27.700Z,21.11
2023-02-27T01:10:32.834Z,21.08
2023-02-27T01:13:35.616Z,21.03
2023-02-27T01:16:39.884Z,21.02
2023-02-27T01:19:42.734Z,21.02
2023-02-27T01:22:45.534Z,21.00
2023-02-27T01:25:48.810Z,20.98
2023-02-27T01:28:51.568Z,20.96
2023-02-27T01:31:55.822Z,20.94
2023-02-27T01:34:58.734Z,20.92
2023-02-27T01:38:01.621Z,20.92
2023-02-27T01:41:06.357Z,20.90
2023-02-27T01:44:09.966Z,20.89
2023-02-27T01:47:14.160Z,20.85
2023-02-27T01:50:19.388Z,20.84
2023-02-27T01:53:25.894Z,20.83
2023-02-27T01:56:30.210Z,20.80
2023-02-27T01:59:33.042Z,20.80
2023-02-27T02:02:39.217Z,20.79
2023-02-27T02:05:44.676Z,20.76
2023-02-27T02:08:48.875Z,20.74
2023-02-27T02:11:52.048Z,20.74
2023-02-27T02:14:54.880Z,20.74
2023-02-27T02:18:02.491Z,20.70
2023-02-27T02:21:24.001Z,20.69
2023-02-27T02:24:34.475Z,20.67
2023-02-27T02:27:49.963Z,20.64
2023-02-27T02:31:07.497Z,20.64
2023-02-27T02:34:28.021Z,20.62
2023-02-27T02:37:45.614Z,20.63
2023-02-27T02:40:53.542Z,20.60
2023-02-27T02:44:01.472Z,20.59
2023-02-27T02:47:06.551Z,20.59
2023-02-27T02:50:13.345Z,20.60
2023-02-27T02:53:23.141Z,20.58
2023-02-27T02:56:30.836Z,20.60
2023-02-27T02:59:36.628Z,20.55
2023-02-27T03:02:44.813Z,20.55
2023-02-27T03:05:50.609Z,20.52
2023-02-27T03:08:56.109Z,20.51
2023-02-27T03:12:01.141Z,20.52
2023-02-27T03:15:07.433Z,20.49
2023-02-27T03:18:17.542Z,20.49
2023-02-27T03:21:23.875Z,20.48
2023-02-27T03:24:29.433Z,20.48
2023-02-27T03:27:36.158Z,20.46
2023-02-27T03:30:42.494Z,20.45
2023-02-27T03:33:49.202Z,20.45
2023-02-27T03:36:56.068Z,20.42
2023-02-27T03:40:02.045Z,20.43
2023-02-27T03:43:14.974Z,20.43
2023-02-27T03:46:19.661Z,20.40
2023-02-27T03:49:24.454Z,20.40
2023-02-27T03:52:27.980Z,20.40
2023-02-27T03:55:33.887Z,20.40
2023-02-27T03:58:38.128Z,20.37
2023-02-27T04:01:41.356Z,20.36
2023-02-27T04:04:44.166Z,20.50
2023-02-27T04:07:53.072Z,20.58
2023-02-27T04:11:02.489Z,20.64
2023-02-27T04:14:14.127Z,20.74
2023-02-27T04:17:18.948Z,20.82
2023-02-27T04:20:29.408Z,20.95
2023-02-27T04:23:35.721Z,21.13
2023-02-27T04:26:40.565Z,21.15
2023-02-27T04:29:52.948Z,21.23
2023-02-27T04:32:58.732Z,21.19
2023-02-27T04:36:04.090Z,21.21
2023-02-27T04:39:09.285Z,21.24
2023-02-27T04:42:15.970Z,21.28
2023-02-27T04:45:22.062Z,21.31
2023-02-27T04:48:26.201Z,21.33
2023-02-27T04:51:32.888Z,21.38
2023-02-27T04:54:39.435Z,21.41
2023-02-27T04:57:46.379Z,21.41
2023-02-27T05:00:52.749Z,21.48
2023-02-27T05:03:56.156Z,21.43
2023-02-27T05:07:03.332Z,21.41
2023-02-27T05:10:07.257Z,21.42
2023-02-27T05:13:13.609Z,21.41
2023-02-27T05:16:23.117Z,21.41
2023-02-27T05:19:25.951Z,21.33
2023-02-27T05:22:34.493Z,21.33
2023-02-27T05:25:41.981Z,21.28
2023-02-27T05:28:52.557Z,21.22
2023-02-27T05:32:05.987Z,21.19
2023-02-27T05:35:12.355Z,21.10
2023-02-27T05:38:17.271Z,21.07
2023-02-27T05:41:23.047Z,21.03
2023-02-27T05:44:29.715Z,21.00
2023-02-27T05:47:36.095Z,20.93
2023-02-27T05:50:40.075Z,20.89
2023-02-27T05:53:45.172Z,20.84
2023-02-27T05:56:49.203Z,20.86
2023-02-27T05:59:55.749Z,20.87
2023-02-27T06:03:00.011Z,20.79
2023-02-27T06:06:04.590Z,20.75
2023-02-27T06:09:07.874Z,20.73
2023-02-27T06:12:10.713Z,20.77
2023-02-27T06:15:13.703Z,20.82
2023-02-27T06:18:23.085Z,20.76
2023-02-27T06:21:25.922Z,20.74
2023-02-27T06:24:28.658Z,20.71
2023-02-27T06:27:31.492Z,20.70
2023-02-27T06:30:34.333Z,20.65
2023-02-27T06:33:38.558Z,20.66
2023-02-27T06:36:41.480Z,20.63
2023-02-27T06:39:44.362Z,20.59
2023-02-27T06:42:47.143Z,20.60
2023-02-27T06:45:49.950Z,20.57
2023-02-27T06:48:54.103Z,20.57
2023-02-27T06:51:56.965Z,20.54
2023-02-27T06:54:59.747Z,20.50
2023-02-27T06:58:02.559Z,20.49
2023-02-27T07:01:05.541Z,20.47
2023-02-27T07:04:10.009Z,20.47
2023-02-27T07:07:33.840Z,20.48
2023-02-27T07:10:35.585Z,20.44
2023-02-27T07:13:38.361Z,20.42
2023-02-27T07:16:41.166Z,20.39
2023-02-27T07:19:45.670Z,20.41
2023-02-27T07:22:48.557Z,20.41
2023-02-27T07:25:51.391Z,20.39
2023-02-27T07:28:54.905Z,20.36
2023-02-27T07:31:57.817Z,20.34
2023-02-27T07:35:03.338Z,20.34
2023-02-27T07:38:06.152Z,20.33
2023-02-27T07:41:13.866Z,20.33
2023-02-27T07:44:24.129Z,20.31
2023-02-27T07:47:26.968Z,20.30
2023-02-27T07:50:33.661Z,20.31
2023-02-27T07:53:39.184Z,20.29
2023-02-27T07:56:41.961Z,20.29
2023-02-27T07:59:44.774Z,20.30
2023-02-27T08:02:47.580Z,20.27
2023-02-27T08:05:51.789Z,20.29
2023-02-27T08:08:54.548Z,20.29
2023-02-27T08:11:57.297Z,20.26
2023-02-27T08:15:00.146Z,20.24
2023-02-27T08:18:02.875Z,20.23
2023-02-27T08:21:08.470Z,20.21
2023-02-27T08:24:11.707Z,20.22
2023-02-27T08:27:16.174Z,20.21
2023-02-27T08:30:19.097Z,20.21
2023-02-27T08:33:22.308Z,20.22
2023-02-27T08:36:26.661Z,20.20
2023-02-27T08:39:29.603Z,20.21
2023-02-27T08:42:32.371Z,20.19
2023-02-27T08:45:35.204Z,20.17
2023-02-27T08:48:38.003Z,20.17
2023-02-27T08:51:42.197Z,20.16
2023-02-27T08:54:45.049Z,20.16
2023-02-27T08:57:47.788Z,20.15
2023-02-27T09:00:50.570Z,20.12
2023-02-27T09:03:53.429Z,20.21
2023-02-27T09:06:59.933Z,20.31
2023-02-27T09:10:02.776Z,20.40
2023-02-27T09:13:05.572Z,20.44
2023-02-27T09:16:10.347Z,20.59
2023-02-27T09:19:16.472Z,20.63
2023-02-27T09:22:20.944Z,20.74
2023-02-27T09:25:24.255Z,20.77
2023-02-27T09:28:27.129Z,20.86
2023-02-27T09:31:32.994Z,20.87
2023-02-27T09:34:36.209Z,20.91
2023-02-27T09:37:40.881Z,20.99
2023-02-27T09:40:45.865Z,20.99
2023-02-27T09:43:50.332Z,20.98
2023-02-27T09:46:53.617Z,21.06
2023-02-27T09:50:00.993Z,21.08
2023-02-27T09:53:05.469Z,21.12
2023-02-27T09:56:10.947Z,21.17
2023-02-27T09:59:18.138Z,21.17
2023-02-27T10:02:28.630Z,21.17
2023-02-27T10:05:36.779Z,21.23
2023-02-27T10:08:47.257Z,21.22
2023-02-27T10:11:56.556Z,21.27
2023-02-27T10:15:00.788Z,21.27
2023-02-27T10:18:23.773Z,21.25
2023-02-27T10:21:32.423Z,21.33
2023-02-27T10:24:38.375Z,21.50
2023-02-27T10:27:41.462Z,21.58
2023-02-27T10:30:45.521Z,21.38
2023-02-27T10:33:49.168Z,21.39
2023-02-27T10:36:52.413Z,21.36
2023-02-27T10:39:57.830Z,21.32
2023-02-27T10:43:06.394Z,21.28
2023-02-27T10:46:14.935Z,21.25
2023-02-27T10:49:20.510Z,21.22
2023-02-27T10:52:23.312Z,21.16
2023-02-27T10:55:31.298Z,21.15
2023-02-27T10:58:36.180Z,21.10
2023-02-27T11:01:45.798Z,21.02
2023-02-27T11:04:53.948Z,21.04
2023-02-27T11:08:11.470Z,20.96
2023-02-27T11:11:15.577Z,20.92
2023-02-27T11:14:25.953Z,20.91
2023-02-27T11:17:29.741Z,20.86
2023-02-27T11:20:35.590Z,20.82
2023-02-27T11:23:38.528Z,20.76
2023-02-27T11:26:55.273Z,20.75
2023-02-27T11:29:59.254Z,20.71
2023-02-27T11:33:02.951Z,20.72
2023-02-27T11:36:06.585Z,20.71
2023-02-27T11:39:22.254Z,20.68
2023-02-27T11:42:30.593Z,20.64
2023-02-27T11:46:13.632Z,20.66
2023-02-27T11:49:01.982Z,20.63
2023-02-27T11:52:08.575Z,20.58
2023-02-27T11:55:16.067Z,20.57
2023-02-27T11:58:22.064Z,20.57
2023-02-27T12:01:26.892Z,20.50
2023-02-27T12:04:34.759Z,20.52
2023-02-27T12:07:42.651Z,20.50
2023-02-27T12:10:49.393Z,20.46
2023-02-27T12:13:57.443Z,20.47
2023-02-27T12:17:02.581Z,20.44
2023-02-27T12:20:22.747Z,20.42
2023-02-27T12:23:29.349Z,20.40
2023-02-27T12:26:34.075Z,20.34
2023-02-27T12:29:43.059Z,20.37
2023-02-27T12:32:50.204Z,20.33
2023-02-27T12:35:56.210Z,20.33
2023-02-27T12:38:58.975Z,20.30
2023-02-27T12:42:22.662Z,20.27
2023-02-27T12:45:36.064Z,20.27
2023-02-27T12:48:45.270Z,20.24
2023-02-27T12:51:52.233Z,20.22
2023-02-27T12:55:01.577Z,20.19
2023-02-27T12:58:16.318Z,20.18
2023-02-27T13:01:27.742Z,20.17
2023-02-27T13:04:36.553Z,20.14
2023-02-27T13:07:44.830Z,20.13
2023-02-27T13:10:50.247Z,20.17
2023-02-27T13:13:56.369Z,20.14
2023-02-27T13:17:04.161Z,20.15
2023-02-27T13:20:14.448Z,20.14
2023-02-27T13:23:20.680Z,20.14
2023-02-27T13:26:25.888Z,20.14
2023-02-27T13:29:34.955Z,20.24
2023-02-27T13:32:44.490Z,20.36
2023-02-27T13:35:52.134Z,20.43
2023-02-27T13:38:55.802Z,20.55
2023-02-27T13:41:58.525Z,20.65
2023-02-27T13:45:02.107Z,20.74
2023-02-27T13:48:30.335Z,20.80
2023-02-27T13:51:47.053Z,20.87
2023-02-27T13:54:50.036Z,21.18
2023-02-27T13:57:55.566Z,21.14
2023-02-27T14:01:02.740Z,21.10
2023-02-27T14:04:08.719Z,21.03
2023-02-27T14:07:14.162Z,21.05
2023-02-27T14:10:22.247Z,21.28
2023-02-27T14:13:43.731Z,21.26
2023-02-27T14:16:59.715Z,21.27
2023-02-27T14:20:06.697Z,21.19
2023-02-27T14:23:18.229Z,21.18
2023-02-27T14:26:22.737Z,21.29
2023-02-27T14:29:31.085Z,21.13
2023-02-27T14:32:36.323Z,21.39
2023-02-27T14:35:40.862Z,21.23
2023-02-27T14:38:46.533Z,21.26
2023-02-27T14:41:54.129Z,21.24
2023-02-27T14:44:57.072Z,21.28
2023-02-27T14:48:00.178Z,21.30
2023-02-27T14:51:04.538Z,21.28
2023-02-27T14:54:10.089Z,21.33
2023-02-27T14:57:16.708Z,21.28
2023-02-27T15:00:30.645Z,21.36
2023-02-27T15:03:39.979Z,21.39
2023-02-27T15:06:46.044Z,21.34
2023-02-27T15:09:50.030Z,21.37
2023-02-27T15:12:55.922Z,21.38
2023-02-27T15:16:17.520Z,21.34
2023-02-27T15:19:21.188Z,21.42
2023-02-27T15:22:38.456Z,21.40
2023-02-27T15:25:42.002Z,21.40
2023-02-27T15:28:44.794Z,21.45
2023-02-27T15:31:47.684Z,21.41
2023-02-27T15:34:52.511Z,21.44
2023-02-27T15:37:57.385Z,21.41
2023-02-27T15:41:00.934Z,21.44
2023-02-27T15:44:04.286Z,21.46
2023-02-27T15:47:07.566Z,21.48
2023-02-27T15:50:11.984Z,21.45
2023-02-27T15:53:18.264Z,21.51
2023-02-27T15:56:25.623Z,21.53
2023-02-27T15:59:30.542Z,21.49
2023-02-27T16:02:39.461Z,21.51
2023-02-27T16:05:43.011Z,21.55
2023-02-27T16:08:49.213Z,21.52
2023-02-27T16:12:10.401Z,21.59
2023-02-27T16:15:20.842Z,21.58
2023-02-27T16:18:28.444Z,21.54
2023-02-27T16:21:32.211Z,21.55
2023-02-27T16:24:36.420Z,21.50
2023-02-27T16:27:40.202Z,21.47
2023-02-27T16:30:43.476Z,21.44
2023-02-27T16:33:46.297Z,21.38
2023-02-27T16:36:53.574Z,21.39
2023-02-27T16:39:57.715Z,21.32
2023-02-27T16:43:01.435Z,21.29
2023-02-27T16:46:04.387Z,21.24
2023-02-27T16:49:19.493Z,21.17
2023-02-27T16:52:23.354Z,21.12
2023-02-27T16:55:28.005Z,21.07
2023-02-27T16:58:30.823Z,21.03
2023-02-27T17:01:34.397Z,20.98
2023-02-27T17:04:37.427Z,20.94
2023-02-27T17:07:40.370Z,20.91
2023-02-27T17:10:44.564Z,20.88
2023-02-27T17:13:47.350Z,20.85
2023-02-27T17:16:50.220Z,20.75
2023-02-27T17:19:53.327Z,20.66
2023-02-27T17:22:56.187Z,20.73
2023-02-27T17:26:00.354Z,20.73
2023-02-27T17:29:03.732Z,20.69
2023-02-27T17:32:09.263Z,20.67
2023-02-27T17:35:12.171Z,20.68
2023-02-27T17:38:15.042Z,20.65
2023-02-27T17:41:19.149Z,20.64
2023-02-27T17:44:22.483Z,20.61
2023-02-27T17:47:25.218Z,20.61
2023-02-27T17:50:28.157Z,20.59
2023-02-27T17:53:30.952Z,20.58
2023-02-27T17:56:36.906Z,20.56
2023-02-27T17:59:40.374Z,20.53
2023-02-27T18:02:44.379Z,20.52
2023-02-27T18:05:51.448Z,20.50
2023-02-27T18:08:54.252Z,20.45
2023-02-27T18:11:58.999Z,20.53
2023-02-27T18:15:02.031Z,20.50
2023-02-27T18:18:06.109Z,20.45
2023-02-27T18:21:10.516Z,20.53
2023-02-27T18:24:13.451Z,20.63
2023-02-27T18:27:17.531Z,20.68
2023-02-27T18:30:20.425Z,20.78
2023-02-27T18:33:23.496Z,20.88
2023-02-27T18:36:30.716Z,21.23
2023-02-27T18:39:33.798Z,21.06
2023-02-27T18:42:37.916Z,21.08
2023-02-27T18:45:40.998Z,21.20
2023-02-27T18:48:44.721Z,21.22
2023-02-27T18:51:49.665Z,21.26
2023-02-27T18:54:52.468Z,21.27
2023-02-27T18:57:56.791Z,21.30
2023-02-27T19:00:59.858Z,21.28
2023-02-27T19:04:04.870Z,21.27
2023-02-27T19:07:09.637Z,21.30
2023-02-27T19:10:13.598Z,21.27
2023-02-27T19:13:19.049Z,21.30
2023-02-27T19:16:21.918Z,21.23
2023-02-27T19:19:28.258Z,21.21
2023-02-27T19:22:31.043Z,21.11
2023-02-27T19:25:33.867Z,21.14
2023-02-27T19:28:37.942Z,21.09
2023-02-27T19:31:40.931Z,21.09
2023-02-27T19:34:43.783Z,21.04
2023-02-27T19:37:55.198Z,20.98
2023-02-27T19:41:01.194Z,20.95
2023-02-27T19:44:05.461Z,20.89
2023-02-27T19:47:08.307Z,20.91
2023-02-27T19:50:11.695Z,20.84
2023-02-27T19:53:14.826Z,20.83
2023-02-27T19:56:19.759Z,20.85
2023-02-27T19:59:25.120Z,20.79
2023-02-27T20:02:27.902Z,20.73
2023-02-27T20:05:30.685Z,20.72
2023-02-27T20:08:33.806Z,20.68
2023-02-27T20:11:36.581Z,20.68
2023-02-27T20:14:41.095Z,20.66
2023-02-27T20:17:46.452Z,20.59
2023-02-27T20:20:49.269Z,20.57
2023-02-27T20:23:52.466Z,20.56
2023-02-27T20:26:58.974Z,20.51
2023-02-27T20:30:03.357Z,20.51
2023-02-27T20:33:06.113Z,20.46
2023-02-27T20:36:10.185Z,20.47
2023-02-27T20:39:13.530Z,20.47
2023-02-27T20:42:16.799Z,20.47
2023-02-27T20:45:29.636Z,20.43
2023-02-27T20:48:34.860Z,20.52
2023-02-27T20:51:44.133Z,20.60
2023-02-27T20:54:46.926Z,20.67
2023-02-27T20:57:49.752Z,20.74
2023-02-27T21:00:53.965Z,20.83
2023-02-27T21:03:57.898Z,20.93
2023-02-27T21:07:00.693Z,21.02
2023-02-27T21:10:06.867Z,21.04
2023-02-27T21:13:10.538Z,21.10
2023-02-27T21:16:15.925Z,21.13
2023-02-27T21:19:18.833Z,21.17
2023-02-27T21:22:21.573Z,21.19
2023-02-27T21:25:24.923Z,21.23
2023-02-27T21:28:27.749Z,21.51
2023-02-27T21:31:33.403Z,21.36
2023-02-27T21:34:36.344Z,21.30
2023-02-27T21:37:46.859Z,21.39
2023-02-27T21:40:50.955Z,21.38
2023-02-27T21:43:53.774Z,21.52
2023-02-27T21:46:59.261Z,21.33
2023-02-27T21:50:02.009Z,21.57
2023-02-27T21:53:04.830Z,21.36
2023-02-27T21:56:09.632Z,21.88
2023-02-27T21:59:12.825Z,21.66
2023-02-27T22:02:16.976Z,21.48
2023-02-27T22:05:20.003Z,21.48
2023-02-27T22:08:22.835Z,21.57
2023-02-27T22:11:26.606Z,21.49
2023-02-27T22:14:29.527Z,21.50
2023-02-27T22:17:33.677Z,21.49
2023-02-27T22:20:36.846Z,21.47
2023-02-27T22:23:42.917Z,21.42
2023-02-27T22:26:49.045Z,21.38
2023-02-27T22:29:51.841Z,21.32
2023-02-27T22:32:56.084Z,21.27
2023-02-27T22:36:03.306Z,21.21
2023-02-27T22:39:06.443Z,21.32
2023-02-27T22:42:10.501Z,21.18
2023-02-27T22:45:14.310Z,21.09
2023-02-27T22:48:26.406Z,21.05
2023-02-27T22:51:29.724Z,20.98
2023-02-27T22:54:34.684Z,20.91
2023-02-27T22:57:37.398Z,20.85
2023-02-27T23:00:40.207Z,20.78
2023-02-27T23:03:44.898Z,20.74
2023-02-27T23:06:47.859Z,20.71
2023-02-27T23:09:53.268Z,20.71
2023-02-27T23:12:56.040Z,20.70
2023-02-27T23:15:58.962Z,20.68
2023-02-27T23:19:03.192Z,20.68
2023-02-27T23:22:06.009Z,20.62
2023-02-27T23:25:10.485Z,20.59
2023-02-27T23:28:14.440Z,20.56
2023-02-27T23:31:17.243Z,20.55
2023-02-27T23:34:37.818Z,20.52
2023-02-27T23:37:46.681Z,20.52
2023-02-27T23:40:49.612Z,20.50
2023-02-27T23:44:10.786Z,20.47
2023-02-27T23:47:31.413Z,20.47
2023-02-27T23:50:47.022Z,20.45
2023-02-27T23:53:49.916Z,20.43
2023-02-27T23:56:52.687Z,20.43
2023-02-27T23:59:55.400Z,20.40
